createdAt,value
2023-03-12T00:01:17.140Z,-1.87
2023-03-12T00:04:03.518Z,-1.87
2023-03-12T00:06:51.120Z,-1.87
2023-03-12T00:09:37.479Z,-1.90
2023-03-12T00:12:23.356Z,-1.91
2023-03-12T00:15:09.978Z,-1.90
2023-03-12T00:17:55.980Z,-1.90
2023-03-12T00:20:42.147Z,-1.90
2023-03-12T00:23:29.388Z,-1.90
2023-03-12T00:26:15.543Z,-1.86
2023-03-12T00:29:01.619Z,-1.84
2023-03-12T00:31:47.590Z,-1.80
2023-03-12T00:34:34.347Z,-1.81
2023-03-12T00:37:20.362Z,-1.80
2023-03-12T00:40:09.336Z,-1.79
2023-03-12T00:42:55.064Z,-1.80
2023-03-12T00:45:41.055Z,-1.82
2023-03-12T00:48:26.818Z,-1.81
2023-03-12T00:51:13.296Z,-1.79
2023-03-12T00:53:59.597Z,-1.78
2023-03-12T00:56:47.156Z,-1.79
2023-03-12T00:59:33.188Z,-1.79
2023-03-12T01:02:19.522Z,-1.80
2023-03-12T01:05:05.841Z,-1.82
2023-03-12T01:07:51.708Z,-1.80
2023-03-12T01:10:38.060Z,-1.78
2023-03-12T01:13:27.467Z,-1.76
2023-03-12T01:16:13.648Z,-1.76
2023-03-12T01:19:00.433Z,-1.78
2023-03-12T01:21:46.630Z,-1.81
2023-03-12T01:24:32.455Z,-1.83
2023-03-12T01:27:18.307Z,-1.85
2023-03-12T01:30:05.914Z,-1.89
2023-03-12T01:32:52.263Z,-1.92
2023-03-12T01:35:39.501Z,-1.92
2023-03-12T01:38:25.721Z,-1.94
2023-03-12T01:41:11.368Z,-1.96
2023-03-12T01:44:00.137Z,-1.98
2023-03-12T01:46:47.818Z,-1.98
2023-03-12T01:49:38.597Z,-2.00
2023-03-12T01:52:26.243Z,-2.00
2023-03-12T01:55:14.804Z,-2.00
2023-03-12T01:58:04.032Z,-2.02
2023-03-12T02:00:49.742Z,-2.05
2023-03-12T02:03:37.427Z,-2.07
2023-03-12T02:06:27.111Z,-2.10
2023-03-12T02:09:13.383Z,-2.12
2023-03-12T02:11:59.402Z,-2.15
2023-03-12T02:14:45.123Z,-2.19
2023-03-12T02:17:31.105Z,-2.22
2023-03-12T02:20:19.729Z,-2.25
2023-03-12T02:23:06.832Z,-2.27
2023-03-12T02:25:54.433Z,-2.31
2023-03-12T02:28:43.943Z,-2.32
2023-03-12T02:31:30.941Z,-2.33
2023-03-12T02:34:17.208Z,-2.36
2023-03-12T02:37:03.811Z,-2.40
2023-03-12T02:39:51.335Z,-2.41
2023-03-12T02:42:39.081Z,-2.42
2023-03-12T02:45:25.029Z,-2.46
2023-03-12T02:48:10.686Z,-2.48
2023-03-12T02:50:56.608Z,-2.50
2023-03-12T02:53:42.365Z,-2.54
2023-03-12T02:56:28.899Z,-2.56
2023-03-12T02:59:16.122Z,-2.58
2023-03-12T03:02:04.427Z,-2.60
2023-03-12T03:04:50.783Z,-2.62
2023-03-12T03:07:36.859Z,-2.63
2023-03-12T03:10:22.819Z,-2.65
2023-03-12T03:13:09.169Z,-2.69
2023-03-12T03:15:59.651Z,-2.74
2023-03-12T03:18:45.718Z,-2.76
2023-03-12T03:21:31.505Z,-2.79
2023-03-12T03:24:19.022Z,-2.84
2023-03-12T03:27:05.109Z,-2.86
2023-03-12T03:29:51.071Z,-2.87
2023-03-12T03:32:38.663Z,-2.92
2023-03-12T03:35:24.958Z,-2.93
2023-03-12T03:38:11.209Z,-2.96
2023-03-12T03:40:57.428Z,-3.00
2023-03-12T03:43:43.598Z,-3.01
2023-03-12T03:46:29.640Z,-3.07
2023-03-12T03:49:23.586Z,-3.09
2023-03-12T03:52:09.661Z,-3.12
2023-03-12T03:54:56.988Z,-3.14
2023-03-12T03:57:43.046Z,-3.17
2023-03-12T04:00:29.292Z,-3.21
2023-03-12T04:03:15.578Z,-3.23
2023-03-12T04:06:03.904Z,-3.25
2023-03-12T04:08:50.168Z,-3.25
2023-03-12T04:11:38.266Z,-3.26
2023-03-12T04:14:26.070Z,-3.30
2023-03-12T04:17:12.446Z,-3.32
2023-03-12T04:19:58.801Z,-3.35
2023-03-12T04:22:46.765Z,-3.36
2023-03-12T04:25:33.407Z,-3.40
2023-03-12T04:28:20.022Z,-3.40
2023-03-12T04:31:07.620Z,-3.39
2023-03-12T04:33:57.818Z,-3.39
2023-03-12T04:36:44.887Z,-3.39
2023-03-12T04:39:32.352Z,-3.39
2023-03-12T04:42:18.380Z,-3.38
2023-03-12T04:45:07.207Z,-3.38
2023-03-12T04:47:55.292Z,-3.36
2023-03-12T04:50:41.593Z,-3.37
2023-03-12T04:53:27.925Z,-3.38
2023-03-12T04:56:16.037Z,-3.36
2023-03-12T04:59:03.520Z,-3.36
2023-03-12T05:01:51.459Z,-3.35
2023-03-12T05:04:42.609Z,-3.34
2023-03-12T05:07:28.580Z,-3.36
2023-03-12T05:10:15.061Z,-3.34
2023-03-12T05:13:02.222Z,-3.31
2023-03-12T05:15:50.674Z,-3.30
2023-03-12T05:18:37.540Z,-3.33
2023-03-12T05:21:23.744Z,-3.31
2023-03-12T05:24:14.028Z,-3.33
2023-03-12T05:27:00.124Z,-3.31
2023-03-12T05:29:48.508Z,-3.32
2023-03-12T05:32:34.591Z,-3.26
2023-03-12T05:35:20.832Z,-3.22
2023-03-12T05:38:06.959Z,-3.24
2023-03-12T05:40:53.940Z,-3.17
2023-03-12T05:43:40.515Z,-3.18
2023-03-12T05:46:28.065Z,-3.13
2023-03-12T05:49:14.270Z,-3.14
2023-03-12T05:52:00.010Z,-3.08
2023-03-12T05:54:45.996Z,-3.04
2023-03-12T05:57:31.790Z,-3.05
2023-03-12T06:00:19.582Z,-2.99
2023-03-12T06:03:14.498Z,-2.98
2023-03-12T06:06:01.292Z,-2.94
2023-03-12T06:08:47.610Z,-2.91
2023-03-12T06:11:34.085Z,-2.89
2023-03-12T06:14:20.196Z,-2.85
2023-03-12T06:17:07.223Z,-2.84
2023-03-12T06:19:54.622Z,-2.79
2023-03-12T06:22:40.997Z,-2.77
2023-03-12T06:25:27.073Z,-2.74
2023-03-12T06:28:13.085Z,-2.71
2023-03-12T06:30:58.879Z,-2.63
2023-03-12T06:33:44.764Z,-2.58
2023-03-12T06:36:31.976Z,-2.48
2023-03-12T06:39:18.319Z,-2.30
2023-03-12T06:42:05.206Z,-2.13
2023-03-12T06:44:51.192Z,-1.98
2023-03-12T06:47:36.918Z,-1.88
2023-03-12T06:50:22.632Z,-1.72
2023-03-12T06:53:09.896Z,-1.59
2023-03-12T06:55:55.814Z,-1.53
2023-03-12T06:58:41.551Z,-1.51
2023-03-12T07:01:27.701Z,-1.45
2023-03-12T07:04:14.131Z,-1.41
2023-03-12T07:07:00.301Z,-1.37
2023-03-12T07:09:47.800Z,-1.32
2023-03-12T07:12:33.930Z,-1.27
2023-03-12T07:15:19.945Z,-1.18
2023-03-12T07:18:06.131Z,-1.11
2023-03-12T07:20:52.486Z,-1.00
2023-03-12T07:23:38.499Z,-0.86
2023-03-12T07:26:26.336Z,-0.74
2023-03-12T07:29:12.423Z,-0.64
2023-03-12T07:31:58.270Z,-0.54
2023-03-12T07:34:44.589Z,-0.46
2023-03-12T07:37:30.350Z,-0.40
2023-03-12T07:40:16.288Z,-0.35
2023-03-12T07:43:05.420Z,-0.25
2023-03-12T07:45:51.850Z,-0.16
2023-03-12T07:48:38.553Z,-0.07
2023-03-12T07:51:24.881Z,0.03
2023-03-12T07:54:10.848Z,0.15
2023-03-12T07:56:57.110Z,0.19
2023-03-12T07:59:44.466Z,0.25
2023-03-12T08:02:30.758Z,0.42
2023-03-12T08:05:16.820Z,0.54
2023-03-12T08:08:02.674Z,0.66
2023-03-12T08:10:48.815Z,0.71
2023-03-12T08:13:34.857Z,0.79
2023-03-12T08:16:22.494Z,0.84
2023-03-12T08:19:08.603Z,0.87
2023-03-12T08:21:54.430Z,0.92
2023-03-12T08:24:40.180Z,0.96
2023-03-12T08:27:26.483Z,1.02
2023-03-12T08:30:12.985Z,1.05
2023-03-12T08:33:00.224Z,1.12
2023-03-12T08:35:47.229Z,1.15
2023-03-12T08:38:33.281Z,1.18
2023-03-12T08:41:19.197Z,1.24
2023-03-12T08:44:05.252Z,1.26
2023-03-12T08:46:51.287Z,1.28
2023-03-12T08:49:38.777Z,1.31
2023-03-12T08:52:24.671Z,1.36
2023-03-12T08:55:10.965Z,1.44
2023-03-12T08:57:57.443Z,1.50
2023-03-12T09:00:43.426Z,1.53
2023-03-12T09:03:29.544Z,1.59
2023-03-12T09:06:17.159Z,1.69
2023-03-12T09:09:04.968Z,1.76
2023-03-12T09:11:50.910Z,1.81
2023-03-12T09:15:02.602Z,1.84
2023-03-12T09:17:42.549Z,1.90
2023-03-12T09:20:28.614Z,1.95
2023-03-12T09:23:15.756Z,2.05
2023-03-12T09:26:01.843Z,2.15
2023-03-12T09:28:48.091Z,2.21
2023-03-12T09:31:34.343Z,2.29
2023-03-12T09:34:20.450Z,2.37
2023-03-12T09:37:06.403Z,2.52
2023-03-12T09:39:53.604Z,2.64
2023-03-12T09:42:41.382Z,2.69
2023-03-12T09:45:28.215Z,2.76
2023-03-12T09:48:15.158Z,2.87
2023-03-12T09:51:01.833Z,3.04
2023-03-12T09:53:48.554Z,3.13
2023-03-12T09:56:35.853Z,3.37
2023-03-12T09:59:21.926Z,3.42
2023-03-12T10:02:13.898Z,3.55
2023-03-12T10:05:00.482Z,3.48
2023-03-12T10:07:47.810Z,3.50
2023-03-12T10:10:38.414Z,3.52
2023-03-12T10:13:29.286Z,3.55
2023-03-12T10:16:17.981Z,3.48
2023-03-12T10:19:07.060Z,3.51
2023-03-12T10:21:53.857Z,3.52
2023-03-12T10:24:42.963Z,3.55
2023-03-12T10:27:29.977Z,3.44
2023-03-12T10:30:19.133Z,3.49
2023-03-12T10:33:05.359Z,3.48
2023-03-12T10:35:51.189Z,3.53
2023-03-12T10:38:36.859Z,3.49
2023-03-12T10:41:23.686Z,3.50
2023-03-12T10:44:10.568Z,3.48
2023-03-12T10:47:07.617Z,3.41
2023-03-12T10:49:53.405Z,3.42
2023-03-12T10:52:39.561Z,3.42
2023-03-12T10:55:26.270Z,3.40
2023-03-12T10:58:23.259Z,3.35
2023-03-12T11:01:17.261Z,3.34
2023-03-12T11:04:10.712Z,3.24
2023-03-12T11:07:07.269Z,3.20
2023-03-12T11:10:05.343Z,3.20
2023-03-12T11:12:59.041Z,3.17
2023-03-12T11:15:45.348Z,3.13
2023-03-12T11:18:33.056Z,3.07
2023-03-12T11:21:20.757Z,3.07
2023-03-12T11:24:08.571Z,2.99
2023-03-12T11:26:56.639Z,2.88
2023-03-12T11:29:44.635Z,2.82
2023-03-12T11:32:32.065Z,2.84
2023-03-12T11:35:18.881Z,2.85
2023-03-12T11:38:07.446Z,2.77
2023-03-12T11:40:57.420Z,2.63
2023-03-12T11:43:50.318Z,2.60
2023-03-12T11:46:39.233Z,2.54
2023-03-12T11:49:28.885Z,2.51
2023-03-12T11:52:15.562Z,2.40
2023-03-12T11:55:16.692Z,2.26
2023-03-12T11:58:06.897Z,2.23
2023-03-12T12:00:53.893Z,2.13
2023-03-12T12:04:01.075Z,2.12
2023-03-12T12:06:49.782Z,2.00
2023-03-12T12:09:36.635Z,2.03
2023-03-12T12:12:26.902Z,1.81
2023-03-12T12:15:20.635Z,1.82
2023-03-12T12:18:11.904Z,1.91
2023-03-12T12:20:59.113Z,1.87
2023-03-12T12:23:46.847Z,1.87
2023-03-12T12:26:36.634Z,1.86
2023-03-12T12:29:24.953Z,1.88
2023-03-12T12:32:13.388Z,1.90
2023-03-12T12:35:02.637Z,1.95
2023-03-12T12:37:50.204Z,1.95
2023-03-12T12:40:37.403Z,1.94
2023-03-12T12:43:25.084Z,1.90
2023-03-12T12:46:11.910Z,1.85
2023-03-12T12:49:00.460Z,1.93
2023-03-12T12:51:47.584Z,1.92
2023-03-12T12:54:35.680Z,1.96
2023-03-12T12:57:22.554Z,1.92
2023-03-12T13:00:16.345Z,1.95
2023-03-12T13:03:02.265Z,1.98
2023-03-12T13:05:54.317Z,1.98
2023-03-12T13:08:59.478Z,1.96
2023-03-12T13:11:46.247Z,1.99
2023-03-12T13:14:36.789Z,2.00
2023-03-12T13:17:24.097Z,2.00
2023-03-12T13:20:15.052Z,2.02
2023-03-12T13:23:07.084Z,2.04
2023-03-12T13:25:55.377Z,2.07
2023-03-12T13:29:11.181Z,2.11
2023-03-12T13:31:58.143Z,2.17
2023-03-12T13:34:45.554Z,2.23
2023-03-12T13:37:46.443Z,2.28
2023-03-12T13:40:37.733Z,2.34
2023-03-12T13:43:43.392Z,2.35
2023-03-12T13:46:42.702Z,2.39
2023-03-12T13:49:29.845Z,2.44
2023-03-12T13:52:20.268Z,2.45
2023-03-12T13:55:08.111Z,2.50
2023-03-12T13:57:55.923Z,2.53
2023-03-12T14:00:42.537Z,2.55
2023-03-12T14:03:28.935Z,2.56
2023-03-12T14:06:15.160Z,2.58
2023-03-12T14:09:04.939Z,2.62
2023-03-12T14:11:53.542Z,2.62
2023-03-12T14:14:50.394Z,2.65
2023-03-12T14:17:37.178Z,2.67
2023-03-12T14:20:23.109Z,2.69
2023-03-12T14:23:10.098Z,2.71
2023-03-12T14:25:56.992Z,2.73
2023-03-12T14:28:43.174Z,2.76
2023-03-12T14:31:30.523Z,2.81
2023-03-12T14:34:17.441Z,2.82
2023-03-12T14:37:05.714Z,2.83
2023-03-12T14:39:51.952Z,2.84
2023-03-12T14:42:38.503Z,2.89
2023-03-12T14:45:24.512Z,2.94
2023-03-12T14:48:12.924Z,3.01
2023-03-12T14:50:58.914Z,3.06
2023-03-12T14:53:44.801Z,3.09
2023-03-12T14:56:32.859Z,3.12
2023-03-12T14:59:23.697Z,3.17
2023-03-12T15:02:12.234Z,3.23
2023-03-12T15:05:00.674Z,3.34
2023-03-12T15:07:46.770Z,3.42
2023-03-12T15:10:32.859Z,3.47
2023-03-12T15:13:19.497Z,3.54
2023-03-12T15:16:05.873Z,3.63
2023-03-12T15:18:52.871Z,3.66
2023-03-12T15:21:40.151Z,3.69
2023-03-12T15:24:26.088Z,3.71
2023-03-12T15:27:32.431Z,3.77
2023-03-12T15:30:24.990Z,3.83
2023-03-12T15:33:11.871Z,3.88
2023-03-12T15:35:59.581Z,3.95
2023-03-12T15:38:47.127Z,4.03
2023-03-12T15:41:36.343Z,4.08
2023-03-12T15:44:23.088Z,4.13
2023-03-12T15:47:10.872Z,4.19
2023-03-12T15:49:57.528Z,4.24
2023-03-12T15:52:43.572Z,4.25
2023-03-12T15:55:31.335Z,4.30
2023-03-12T15:58:26.957Z,4.31
2023-03-12T16:01:13.572Z,4.37
2023-03-12T16:03:59.611Z,4.44
2023-03-12T16:06:46.952Z,4.45
2023-03-12T16:09:32.696Z,4.52
2023-03-12T16:12:19.853Z,4.55
2023-03-12T16:15:06.012Z,4.61
2023-03-12T16:17:52.052Z,4.68
2023-03-12T16:20:37.898Z,4.74
2023-03-12T16:23:23.975Z,4.79
2023-03-12T16:26:09.750Z,4.83
2023-03-12T16:28:56.865Z,4.90
2023-03-12T16:31:42.983Z,4.95
2023-03-12T16:34:29.002Z,4.97
2023-03-12T16:37:15.016Z,5.05
2023-03-12T16:40:00.984Z,5.08
2023-03-12T16:42:47.654Z,5.14
2023-03-12T16:45:35.843Z,5.18
2023-03-12T16:48:23.072Z,5.18
2023-03-12T16:51:12.385Z,5.22
2023-03-12T16:54:09.777Z,5.24
2023-03-12T16:56:57.823Z,5.27
2023-03-12T16:59:44.224Z,5.29
2023-03-12T17:02:31.348Z,5.34
2023-03-12T17:05:17.317Z,5.37
2023-03-12T17:08:03.662Z,5.38
2023-03-12T17:10:49.812Z,5.39
2023-03-12T17:13:36.474Z,5.41
2023-03-12T17:16:22.584Z,5.41
2023-03-12T17:19:09.751Z,5.42
2023-03-12T17:21:56.435Z,5.43
2023-03-12T17:24:42.419Z,5.44
2023-03-12T17:27:28.384Z,5.45
2023-03-12T17:30:15.220Z,5.46
2023-03-12T17:33:01.656Z,5.47
2023-03-12T17:35:49.235Z,5.47
2023-03-12T17:38:35.056Z,5.47
2023-03-12T17:41:26.454Z,5.50
2023-03-12T17:44:14.745Z,5.50
2023-03-12T17:47:00.974Z,5.51
2023-03-12T17:49:47.517Z,5.52
2023-03-12T17:52:35.164Z,5.54
2023-03-12T17:55:20.947Z,5.55
2023-03-12T17:58:07.029Z,5.58
2023-03-12T18:00:52.773Z,5.59
2023-03-12T18:03:38.715Z,5.66
2023-03-12T18:06:25.431Z,5.69
2023-03-12T18:09:12.549Z,5.71
2023-03-12T18:11:58.456Z,5.74
2023-03-12T18:14:44.554Z,5.81
2023-03-12T18:17:30.851Z,5.80
2023-03-12T18:20:25.846Z,5.83
2023-03-12T18:23:15.028Z,5.88
2023-03-12T18:26:02.774Z,5.91
2023-03-12T18:28:48.703Z,5.96
2023-03-12T18:31:34.876Z,5.99
2023-03-12T18:34:23.300Z,6.06
2023-03-12T18:37:09.402Z,6.10
2023-03-12T18:39:55.250Z,6.16
2023-03-12T18:42:44.425Z,6.18
2023-03-12T18:45:30.837Z,6.20
2023-03-12T18:48:16.520Z,6.18
2023-03-12T18:51:02.926Z,6.20
2023-03-12T18:53:48.865Z,6.16
2023-03-12T18:56:37.938Z,6.12
2023-03-12T18:59:25.213Z,6.10
2023-03-12T19:02:11.399Z,6.11
2023-03-12T19:04:57.227Z,6.12
2023-03-12T19:07:43.435Z,6.16
2023-03-12T19:10:29.271Z,6.19
2023-03-12T19:13:15.440Z,6.17
2023-03-12T19:16:03.331Z,6.19
2023-03-12T19:18:49.678Z,6.23
2023-03-12T19:21:35.650Z,6.24
2023-03-12T19:24:21.539Z,6.29
2023-03-12T19:27:07.312Z,6.28
2023-03-12T19:29:53.109Z,6.31
2023-03-12T19:32:44.242Z,6.30
2023-03-12T19:35:30.430Z,6.37
2023-03-12T19:38:17.642Z,6.38
2023-03-12T19:41:03.775Z,6.35
2023-03-12T19:43:49.941Z,6.39
2023-03-12T19:46:35.755Z,6.37
2023-03-12T19:49:23.327Z,6.42
2023-03-12T19:52:09.349Z,6.42
2023-03-12T19:55:04.291Z,6.44
2023-03-12T19:57:50.867Z,6.47
2023-03-12T20:00:36.662Z,6.49
2023-03-12T20:03:23.107Z,6.53
2023-03-12T20:06:11.141Z,6.61
2023-03-12T20:08:57.040Z,6.67
2023-03-12T20:11:43.073Z,6.73
2023-03-12T20:14:28.857Z,6.75
2023-03-12T20:17:14.669Z,6.77
2023-03-12T20:20:01.167Z,6.75
2023-03-12T20:22:48.467Z,6.76
2023-03-12T20:25:34.757Z,6.74
2023-03-12T20:28:20.853Z,6.72
2023-03-12T20:31:10.266Z,6.73
2023-03-12T20:33:56.253Z,6.74
2023-03-12T20:36:42.479Z,6.77
2023-03-12T20:39:29.678Z,6.77
2023-03-12T20:42:15.920Z,6.78
2023-03-12T20:45:01.936Z,6.78
2023-03-12T20:47:47.887Z,6.80
2023-03-12T20:50:33.987Z,6.79
2023-03-12T20:53:20.203Z,6.78
2023-03-12T20:56:08.236Z,6.78
2023-03-12T20:58:54.342Z,6.77
2023-03-12T21:01:42.630Z,6.78
2023-03-12T21:04:28.942Z,6.78
2023-03-12T21:07:16.411Z,6.77
2023-03-12T21:10:18.167Z,6.74
2023-03-12T21:13:05.433Z,6.70
2023-03-12T21:15:51.629Z,6.70
2023-03-12T21:18:37.712Z,6.73
2023-03-12T21:21:27.502Z,6.73
2023-03-12T21:24:16.649Z,6.73
2023-03-12T21:27:02.447Z,6.69
2023-03-12T21:29:53.122Z,6.70
2023-03-12T21:32:49.745Z,6.70
2023-03-12T21:35:38.196Z,6.70
2023-03-12T21:38:24.176Z,6.71
2023-03-12T21:41:13.121Z,6.71
2023-03-12T21:44:05.115Z,6.69
2023-03-12T21:46:54.207Z,6.70
2023-03-12T21:49:40.597Z,6.65
2023-03-12T21:52:43.803Z,6.64
2023-03-12T21:55:30.121Z,6.66
2023-03-12T21:58:18.756Z,6.69
2023-03-12T22:01:09.572Z,6.72
2023-03-12T22:03:57.081Z,6.81
2023-03-12T22:06:43.278Z,6.85
2023-03-12T22:09:29.140Z,6.90
2023-03-12T22:12:15.289Z,6.91
2023-03-12T22:15:01.054Z,6.96
2023-03-12T22:17:47.428Z,6.99
2023-03-12T22:20:35.088Z,7.00
2023-03-12T22:23:21.333Z,7.02
2023-03-12T22:26:08.011Z,7.03
2023-03-12T22:28:54.285Z,7.01
2023-03-12T22:31:40.936Z,7.02
2023-03-12T22:34:26.811Z,6.98
2023-03-12T22:37:13.918Z,7.03
2023-03-12T22:40:01.507Z,7.06
2023-03-12T22:42:49.920Z,7.09
2023-03-12T22:45:36.945Z,7.11
2023-03-12T22:48:22.634Z,7.15
2023-03-12T22:51:08.592Z,7.17
2023-03-12T22:53:56.111Z,7.16
2023-03-12T22:56:41.925Z,7.20
2023-03-12T22:59:27.651Z,7.23
2023-03-12T23:02:13.558Z,7.22
2023-03-12T23:04:59.859Z,7.24
2023-03-12T23:07:45.746Z,7.27
2023-03-12T23:10:32.775Z,7.28
2023-03-12T23:13:18.533Z,7.28
2023-03-12T23:16:04.862Z,7.31
2023-03-12T23:18:50.949Z,7.34
2023-03-12T23:21:36.902Z,7.35
2023-03-12T23:24:22.754Z,7.36
2023-03-12T23:27:10.110Z,7.38
2023-03-12T23:29:55.941Z,7.38
2023-03-12T23:32:41.915Z,7.34
2023-03-12T23:35:28.682Z,7.38
2023-03-12T23:38:15.178Z,7.38
2023-03-12T23:41:01.709Z,7.38
2023-03-12T23:43:49.320Z,7.39
2023-03-12T23:46:35.553Z,7.40
2023-03-12T23:49:21.963Z,7.40
2023-03-12T23:52:07.808Z,7.45
2023-03-12T23:54:53.700Z,7.42
2023-03-12T23:57:39.511Z,7.43
